Main page
METAR-TAF:

METAR-TAF

Airports :

Ardmore Municipal Airport

Ardmore, Oklahoma, United States

latitude: 34-18-11N, longitude: 097-01-10W, elevation: 761 ft

Current weather observation

The report was made 27 minutes ago, at 10:15 UTC
Wind 7 mph from the South with gusts up to 14 mph
Temperature 66°F
Humidity 83%
Pressure 29.76 in. Hg
Visibility: 10 miles
Overcast at a height of 1900 ft

METAR: KADM 041015Z AUTO 18006G12KT 10SM OVC019 19/16 A2976 RMK AO2

Time: 04:42 (10:42 UTC)


TAF: missing

Weather observations and forecasts of more than 4000 airports (METAR and TAF reports).

The available stations are represented by yellow and red dots on the map.

Hover mouse over dot to see the name of the station.

Then click to see weather observations and forecasts.

To change the map : click on the green buttons with a black cross to zoom in, on the green button with a dash to zoom out, or on the green arrows for adjacent maps.


METAR-TAF: